Time;durP1;ratioP1;P1;durP2;ratioP2;P2;SDS_P1;SDS_P2;PMS_P1;PMS_P2;Temp;Humidity;BMP_temperature;BMP_pressure;BME280_temperature;BME280_humidity;BME280_pressure;Samples;Min_cycle;Max_cycle;Signal;HPM_P1;HPM_P2
2023/01/05 00:00:25;;;;;;;13.80;3.50;;;;;;;1.80;67.26;95555.63;5005257;28;20109;-63
2023/01/05 00:02:51;;;;;;;11.43;2.30;;;;;;;2.12;66.26;95561.84;5008923;28;20106;-64
2023/01/05 00:05:16;;;;;;;12.93;3.13;;;;;;;2.00;65.86;95548.75;5008473;28;20622;-62
2023/01/05 00:07:42;;;;;;;15.65;3.33;;;;;;;1.98;64.26;95529.63;5005829;28;20074;-63
2023/01/05 00:22:29;;;;;;;14.05;3.67;;;;;;;1.81;65.26;95532.84;5000359;28;20104;-63
2023/01/05 00:23:56;;;;;;;12.30;3.13;;;;;;;1.67;66.05;95547.88;5002755;28;20088;-64
2023/01/05 00:26:21;;;;;;;12.55;3.35;;;;;;;1.69;65.96;95551.25;5005725;28;20102;-64
2023/01/05 00:28:47;;;;;;;16.15;3.78;;;;;;;1.47;67.35;95547.66;5007228;28;20102;-63
2023/01/05 00:31:12;;;;;;;12.75;3.22;;;;;;;1.63;67.29;95583.22;5006998;28;20124;-64
2023/01/05 00:33:37;;;;;;;14.15;3.67;;;;;;;1.62;67.66;95563.19;5006820;28;20103;-63
2023/01/05 00:36:08;;;;;;;18.15;3.03;;;;;;;1.75;66.72;95545.50;5005596;28;20503;-64
2023/01/05 00:38:33;;;;;;;13.65;2.83;;;;;;;1.73;67.88;95560.53;5007841;28;20108;-63
2023/01/05 00:40:59;;;;;;;11.95;3.03;;;;;;;1.54;67.66;95561.19;5011319;28;20107;-63
2023/01/05 00:43:24;;;;;;;16.15;3.50;;;;;;;1.83;66.47;95547.50;5012346;28;20519;-64
2023/01/05 00:45:49;;;;;;;16.17;3.33;;;;;;;1.88;67.01;95545.31;5009843;28;20095;-63
2023/01/05 00:48:15;;;;;;;12.75;2.97;;;;;;;1.64;67.92;95549.94;5013072;28;20078;-64
2023/01/05 00:50:40;;;;;;;10.00;2.53;;;;;;;1.64;68.57;95568.31;5006497;28;20550;-64
2023/01/05 00:53:06;;;;;;;13.23;3.20;;;;;;;1.58;69.02;95569.63;5001997;28;20200;-64
2023/01/05 00:55:31;;;;;;;12.35;3.35;;;;;;;1.57;68.94;95571.41;5011243;28;20490;-63
2023/01/05 00:57:56;;;;;;;17.60;3.60;;;;;;;1.41;69.39;95581.44;4998848;28;20591;-64
2023/01/05 01:00:22;;;;;;;13.98;3.00;;;;;;;1.85;68.59;95577.09;5002170;28;20118;-64
2023/01/05 01:02:49;;;;;;;10.90;2.58;;;;;;;1.83;69.21;95576.38;5009638;28;20082;-64
2023/01/05 01:05:15;;;;;;;15.70;3.10;;;;;;;1.69;69.38;95582.75;5000518;28;20335;-64
2023/01/05 01:07:40;;;;;;;13.73;3.15;;;;;;;1.63;70.27;95570.09;5005806;28;20152;-64
2023/01/05 01:10:06;;;;;;;14.00;3.15;;;;;;;1.80;69.52;95567.94;5001785;28;20602;-63
2023/01/05 01:12:31;;;;;;;14.38;3.08;;;;;;;1.96;69.11;95562.25;5008257;28;20106;-64
2023/01/05 01:14:57;;;;;;;18.65;4.43;;;;;;;1.66;69.65;95576.91;5008479;28;20392;-64
2023/01/05 01:17:22;;;;;;;19.50;3.75;;;;;;;1.86;69.27;95576.13;5000754;28;20097;-64
2023/01/05 01:19:48;;;;;;;10.35;2.55;;;;;;;1.50;70.97;95557.13;5002991;28;20092;-64
2023/01/05 01:22:13;;;;;;;20.23;3.60;;;;;;;1.77;71.15;95570.78;5001352;28;20103;-64
2023/01/05 01:24:38;;;;;;;18.60;3.90;;;;;;;1.65;70.73;95562.94;5004742;28;20140;-63
2023/01/05 01:27:04;;;;;;;14.63;3.03;;;;;;;1.67;71.12;95579.38;5002483;28;20071;-63
2023/01/05 01:29:29;;;;;;;13.85;3.00;;;;;;;1.78;69.69;95561.94;5002175;28;20101;-64
2023/01/05 01:31:55;;;;;;;15.38;3.25;;;;;;;1.77;70.90;95563.72;4998441;28;20102;-64
2023/01/05 01:34:20;;;;;;;19.08;3.75;;;;;;;1.80;71.02;95557.44;4992467;28;20172;-64
2023/01/05 01:36:46;;;;;;;16.63;3.92;;;;;;;1.48;71.23;95570.34;4996164;28;20113;-64
2023/01/05 01:39:11;;;;;;;14.23;3.00;;;;;;;1.88;70.15;95586.50;5001659;28;20090;-64
2023/01/05 01:41:37;;;;;;;19.92;3.75;;;;;;;1.55;71.66;95570.72;5000098;28;20606;-64
2023/01/05 01:44:40;;;;;;;16.08;3.78;;;;;;;1.49;71.82;95581.66;5004611;28;20607;-64
2023/01/05 01:47:06;;;;;;;13.77;3.28;;;;;;;1.64;70.86;95589.31;5014405;28;20083;-63
2023/01/05 01:49:32;;;;;;;18.00;3.13;;;;;;;1.71;70.67;95574.75;5004904;28;20102;-64
2023/01/05 01:51:57;;;;;;;15.20;3.42;;;;;;;1.74;71.10;95572.69;5001680;28;20482;-64
2023/01/05 01:54:23;;;;;;;12.52;3.08;;;;;;;1.58;72.05;95570.47;4997065;28;20097;-64
2023/01/05 01:56:50;;;;;;;17.92;3.78;;;;;;;1.78;71.04;95581.16;5005066;28;20208;-63
2023/01/05 01:59:16;;;;;;;14.85;3.55;;;;;;;1.71;70.97;95580.81;5002649;28;20107;-63
2023/01/05 02:01:41;;;;;;;19.17;4.03;;;;;;;1.68;71.03;95580.22;5004399;28;20104;-64
2023/01/05 02:04:07;;;;;;;14.48;3.83;;;;;;;1.59;71.59;95563.44;5005819;28;20084;-64
2023/01/05 02:06:32;;;;;;;14.75;3.70;;;;;;;1.42;72.15;95568.19;5004207;28;20473;-63
2023/01/05 02:08:57;;;;;;;14.63;3.33;;;;;;;1.77;70.50;95571.59;5001479;28;20102;-64
2023/01/05 02:12:02;;;;;;;14.63;3.10;;;;;;;1.79;70.62;95564.47;5002917;28;20143;-64
2023/01/05 02:14:32;;;;;;;15.52;3.60;;;;;;;1.53;72.33;95563.91;5000248;28;20094;-64
2023/01/05 02:17:10;;;;;;;18.42;4.00;;;;;;;1.78;70.90;95567.19;4999530;28;20159;-64
2023/01/05 02:19:54;;;;;;;16.03;3.80;;;;;;;1.40;72.62;95546.50;5005200;28;20088;-64
2023/01/05 02:22:22;;;;;;;20.88;3.90;;;;;;;1.64;71.19;95574.41;5007452;28;20349;-63
2023/01/05 02:25:12;;;;;;;22.63;4.05;;;;;;;1.50;71.80;95557.13;5000358;28;20112;-64
2023/01/05 02:27:40;;;;;;;15.90;3.90;;;;;;;1.52;71.79;95563.06;5003368;28;20209;-64
2023/01/05 02:30:25;;;;;;;19.83;4.40;;;;;;;1.45;71.58;95554.00;4997869;28;20103;-63
2023/01/05 02:33:14;;;;;;;14.30;3.67;;;;;;;1.43;71.86;95559.38;4999638;28;20602;-64
2023/01/05 02:36:17;;;;;;;21.52;3.75;;;;;;;1.35;72.30;95553.91;5002770;28;20081;-64
2023/01/05 02:38:58;;;;;;;17.45;3.40;;;;;;;1.30;73.06;95563.94;5008816;28;20210;-64
2023/01/05 02:41:28;;;;;;;19.85;3.78;;;;;;;1.42;72.88;95541.97;4995129;28;20509;-64
2023/01/05 02:43:55;;;;;;;13.25;3.17;;;;;;;1.44;73.24;95552.34;5004255;28;20469;-63
2023/01/05 02:46:20;;;;;;;16.05;2.97;;;;;;;1.64;71.94;95547.31;4994619;28;20202;-64
2023/01/05 02:48:46;;;;;;;19.77;4.30;;;;;;;1.34;72.55;95583.72;5004702;28;20541;-64
2023/01/05 02:51:14;;;;;;;20.13;4.72;;;;;;;1.24;73.65;95567.88;4997572;28;20385;-64
2023/01/05 02:53:42;;;;;;;15.80;3.90;;;;;;;1.39;73.01;95581.56;5000708;28;20112;-64
2023/01/05 02:56:12;;;;;;;16.20;3.70;;;;;;;1.54;72.77;95558.56;4979530;28;20332;-63
2023/01/05 02:58:46;;;;;;;22.05;4.10;;;;;;;1.32;74.17;95562.84;4993049;28;20111;-64
2023/01/05 03:01:16;;;;;;;18.88;3.45;;;;;;;1.49;73.49;95561.50;5000920;28;20119;-64
2023/01/05 03:03:49;;;;;;;17.23;3.95;;;;;;;1.33;72.98;95566.31;4996441;28;20074;-64
2023/01/05 03:06:28;;;;;;;17.77;3.72;;;;;;;1.57;71.74;95555.66;5004108;28;20132;-64
2023/01/05 03:08:56;;;;;;;19.25;3.47;;;;;;;1.33;73.18;95548.78;4998265;28;20110;-64
2023/01/05 03:14:11;;;;;;;11.82;3.22;;;;;;;1.70;72.12;95570.47;4995095;28;20115;-64
2023/01/05 03:16:36;;;;;;;19.45;4.78;;;;;;;1.47;72.60;95562.59;5000450;28;20174;-63
2023/01/05 03:35:34;;;;;;;14.43;3.83;;;;;;;0.96;79.07;95583.13;5005784;28;20090;-63
2023/01/05 03:38:11;;;;;;;14.15;3.63;;;;;;;0.73;80.76;95598.84;4987884;28;20099;-64
2023/01/05 03:40:37;;;;;;;26.58;4.95;;;;;;;0.47;81.61;95585.91;5003540;28;20506;-64
2023/01/05 03:43:02;;;;;;;16.05;3.28;;;;;;;0.79;81.65;95579.19;5009914;28;20112;-64
2023/01/05 03:45:33;;;;;;;23.83;4.68;;;;;;;0.69;82.07;95589.53;5005789;28;20108;-64
2023/01/05 03:47:58;;;;;;;21.50;3.42;;;;;;;0.96;80.55;95581.34;4990566;28;20405;-64
2023/01/05 03:50:24;;;;;;;16.67;3.58;;;;;;;0.88;82.16;95585.53;5006543;28;20510;-64
2023/01/05 03:52:49;;;;;;;19.88;3.70;;;;;;;0.77;81.86;95573.22;4999151;28;20106;-64
2023/01/05 03:55:15;;;;;;;17.05;3.85;;;;;;;1.12;80.95;95590.63;5001232;28;20073;-64
2023/01/05 03:57:40;;;;;;;19.92;4.47;;;;;;;0.71;81.16;95612.06;5000816;28;20107;-63
2023/01/05 04:00:06;;;;;;;22.95;3.97;;;;;;;0.64;81.91;95604.75;5004773;28;20101;-64
2023/01/05 04:02:31;;;;;;;16.45;3.85;;;;;;;0.46;82.83;95600.81;5003580;28;20130;-64
2023/01/05 04:04:57;;;;;;;19.67;3.63;;;;;;;0.55;82.79;95596.66;5006305;28;20110;-64
2023/01/05 04:07:22;;;;;;;16.55;3.90;;;;;;;0.67;81.39;95610.63;5003577;28;20696;-64
2023/01/05 04:09:48;;;;;;;20.45;4.05;;;;;;;0.45;82.07;95583.41;5005835;28;20102;-64
2023/01/05 04:12:13;;;;;;;15.07;3.25;;;;;;;0.70;81.08;95599.91;5004362;28;20139;-64
2023/01/05 04:14:38;;;;;;;20.40;4.07;;;;;;;0.36;82.63;95583.25;5002387;28;20093;-64
2023/01/05 04:17:04;;;;;;;14.30;3.42;;;;;;;0.66;81.50;95590.63;5000791;28;20576;-64
2023/01/05 04:19:29;;;;;;;16.45;3.83;;;;;;;0.91;79.70;95588.72;5000870;28;20091;-62
2023/01/05 04:21:55;;;;;;;13.93;3.75;;;;;;;0.86;80.41;95588.25;5004805;28;20582;-64
2023/01/05 04:24:20;;;;;;;21.15;3.65;;;;;;;1.18;78.74;95591.94;5006339;28;20124;-64
2023/01/05 04:26:45;;;;;;;13.27;3.78;;;;;;;1.05;78.09;95587.66;5003415;28;20079;-64
2023/01/05 04:29:11;;;;;;;15.68;3.13;;;;;;;1.53;75.79;95617.22;5002444;28;20116;-64
2023/01/05 04:31:36;;;;;;;18.95;3.90;;;;;;;0.85;79.59;95603.16;4999632;28;20116;-63
2023/01/05 04:34:02;;;;;;;20.20;3.97;;;;;;;1.01;80.13;95590.63;5004931;28;20102;-64
2023/01/05 04:36:27;;;;;;;20.38;4.20;;;;;;;0.75;80.89;95615.28;5006986;28;20526;-63
2023/01/05 04:38:52;;;;;;;15.73;2.75;;;;;;;0.84;81.54;95604.09;5007271;28;20096;-64
2023/01/05 04:41:18;;;;;;;21.85;3.67;;;;;;;0.84;81.11;95593.63;5010058;28;20119;-64
2023/01/05 04:43:43;;;;;;;16.77;3.70;;;;;;;0.65;82.52;95612.50;5000487;28;20122;-63
2023/01/05 04:46:09;;;;;;;20.88;3.97;;;;;;;0.95;81.61;95599.81;5007441;28;20103;-64
2023/01/05 04:48:34;;;;;;;18.70;4.45;;;;;;;0.75;81.05;95615.28;5002576;28;20464;-63
2023/01/05 04:51:01;;;;;;;21.50;3.88;;;;;;;0.56;83.00;95595.72;4999794;28;20089;-64
2023/01/05 04:53:26;;;;;;;17.83;4.05;;;;;;;0.51;82.86;95597.03;5004952;28;20177;-64
2023/01/05 04:55:51;;;;;;;21.27;4.38;;;;;;;0.54;82.82;95618.56;5014478;28;20453;-63
2023/01/05 04:58:17;;;;;;;23.40;3.90;;;;;;;0.66;82.24;95622.06;5015241;28;20116;-64
2023/01/05 05:00:43;;;;;;;22.85;4.00;;;;;;;0.45;82.72;95608.78;5011297;28;20229;-64
2023/01/05 05:03:08;;;;;;;21.00;4.20;;;;;;;0.96;81.43;95601.50;5008676;28;20134;-64
2023/01/05 05:05:33;;;;;;;19.35;4.10;;;;;;;0.83;81.33;95591.13;5009357;28;20097;-64
2023/01/05 05:07:59;;;;;;;14.98;3.40;;;;;;;1.04;80.63;95596.50;5005307;28;20079;-64
2023/01/05 05:10:24;;;;;;;23.77;4.65;;;;;;;0.70;81.82;95614.78;5002466;28;20478;-63
2023/01/05 05:12:50;;;;;;;18.27;4.28;;;;;;;0.61;81.89;95600.59;5000414;28;20515;-64
2023/01/05 05:15:15;;;;;;;22.30;3.78;;;;;;;0.78;81.49;95604.56;5001156;28;20160;-64
2023/01/05 05:17:41;;;;;;;18.00;3.67;;;;;;;1.04;80.53;95604.34;4996834;28;20563;-64
2023/01/05 05:20:07;;;;;;;20.33;3.28;;;;;;;0.81;81.52;95601.72;5001755;28;20150;-64
2023/01/05 05:22:32;;;;;;;18.13;4.03;;;;;;;0.49;82.70;95599.75;5000411;28;20546;-64
2023/01/05 05:24:57;;;;;;;27.70;4.88;;;;;;;0.51;83.09;95608.31;5007644;28;20094;-64
2023/01/05 05:27:23;;;;;;;23.05;4.97;;;;;;;0.59;82.84;95611.19;5010891;28;20103;-63
2023/01/05 05:29:48;;;;;;;16.27;4.00;;;;;;;0.63;82.93;95619.66;5004337;28;20607;-64
2023/01/05 05:32:14;;;;;;;21.30;4.30;;;;;;;0.70;82.37;95622.66;5003304;28;20076;-63
2023/01/05 05:34:39;;;;;;;23.80;4.53;;;;;;;0.59;82.82;95620.84;5004352;28;20118;-62
2023/01/05 05:37:04;;;;;;;22.30;4.05;;;;;;;0.50;83.14;95613.66;5003035;28;20497;-63
2023/01/05 05:39:30;;;;;;;13.13;3.25;;;;;;;0.91;81.05;95622.81;5004676;28;20698;-61
2023/01/05 05:41:55;;;;;;;18.90;3.75;;;;;;;0.90;80.20;95625.53;5003938;28;20189;-63
2023/01/05 05:44:21;;;;;;;15.52;3.33;;;;;;;0.81;80.94;95627.91;5003839;28;20109;-63
2023/01/05 05:46:46;;;;;;;20.77;3.88;;;;;;;1.00;79.79;95623.06;5004751;28;20113;-63
2023/01/05 05:49:11;;;;;;;18.65;3.63;;;;;;;1.21;78.50;95623.19;5008027;28;20099;-62
2023/01/05 05:51:37;;;;;;;17.10;3.75;;;;;;;1.36;77.45;95634.25;5005633;28;20176;-63
2023/01/05 05:54:02;;;;;;;17.67;3.70;;;;;;;1.31;78.18;95624.16;5005617;28;20125;-63
2023/01/05 05:56:28;;;;;;;20.83;4.18;;;;;;;1.26;77.47;95644.63;5005370;28;20112;-63
2023/01/05 05:58:53;;;;;;;18.63;3.55;;;;;;;1.10;78.83;95632.72;5018916;28;20098;-63
2023/01/05 06:01:19;;;;;;;19.42;4.13;;;;;;;1.05;79.70;95642.72;5009577;28;20431;-63
2023/01/05 06:03:44;;;;;;;20.25;4.68;;;;;;;0.82;79.02;95658.41;5013833;28;20073;-62
2023/01/05 06:06:10;;;;;;;16.70;3.92;;;;;;;0.66;80.86;95644.81;5002992;28;20101;-63
2023/01/05 06:08:35;;;;;;;21.90;3.72;;;;;;;0.86;81.01;95648.56;4998590;28;20105;-63
2023/01/05 06:11:00;;;;;;;16.50;4.05;;;;;;;0.96;80.28;95656.56;5000618;28;20077;-63
2023/01/05 06:13:26;;;;;;;18.90;4.03;;;;;;;0.76;81.93;95643.19;4996161;28;20373;-62
2023/01/05 06:15:51;;;;;;;20.88;4.00;;;;;;;0.81;80.93;95662.00;4994999;28;20083;-61
2023/01/05 06:18:16;;;;;;;21.10;4.57;;;;;;;0.72;81.52;95649.59;4994887;28;20103;-63
2023/01/05 06:20:42;;;;;;;16.77;3.78;;;;;;;0.80;80.74;95662.97;4997522;28;20618;-62
2023/01/05 06:23:08;;;;;;;19.77;4.55;;;;;;;0.53;81.38;95664.06;4995785;28;20093;-63
2023/01/05 06:25:33;;;;;;;18.10;4.20;;;;;;;0.56;81.65;95656.00;4992784;28;20115;-62
2023/01/05 06:27:59;;;;;;;17.85;4.03;;;;;;;0.64;81.82;95663.25;4995537;28;20089;-63
2023/01/05 06:30:24;;;;;;;18.85;4.70;;;;;;;0.51;82.78;95660.72;4995567;28;20075;-62
2023/01/05 06:32:50;;;;;;;19.35;4.50;;;;;;;0.71;82.03;95669.72;4996938;28;20108;-63
2023/01/05 06:35:15;;;;;;;21.23;4.35;;;;;;;0.46;83.74;95686.44;4999065;28;20130;-61
2023/01/05 06:37:41;;;;;;;21.80;3.72;;;;;;;0.69;82.99;95676.03;4998842;28;20111;-63
2023/01/05 06:40:08;;;;;;;12.20;3.22;;;;;;;0.72;83.77;95681.03;5000196;28;20132;-63
2023/01/05 06:42:34;;;;;;;20.33;3.97;;;;;;;0.78;83.33;95682.38;5000942;28;20661;-62
2023/01/05 06:44:59;;;;;;;18.63;4.38;;;;;;;0.70;83.54;95696.88;4992805;28;20108;-62
2023/01/05 06:47:24;;;;;;;16.83;3.65;;;;;;;0.83;82.63;95694.19;5003141;28;20168;-64
2023/01/05 06:49:50;;;;;;;21.48;4.50;;;;;;;0.40;85.52;95679.84;4997524;28;20124;-63
2023/01/05 06:52:15;;;;;;;20.27;4.50;;;;;;;0.77;83.27;95696.41;5001599;28;20618;-61
2023/01/05 06:54:41;;;;;;;14.00;3.72;;;;;;;0.76;83.39;95721.81;5005943;28;20062;-63
2023/01/05 06:57:06;;;;;;;18.40;4.32;;;;;;;0.37;85.98;95700.22;5003872;28;20096;-62
2023/01/05 06:59:32;;;;;;;17.23;3.85;;;;;;;0.82;84.59;95710.03;5000428;28;20152;-63
2023/01/05 07:01:57;;;;;;;18.25;3.88;;;;;;;0.65;85.34;95698.19;5000195;28;20101;-62
2023/01/05 07:04:23;;;;;;;28.00;4.80;;;;;;;0.56;84.95;95705.78;5005421;28;20598;-61
2023/01/05 07:06:48;;;;;;;23.17;4.45;;;;;;;0.65;84.63;95698.19;5002486;28;20350;-63
2023/01/05 07:09:14;;;;;;;20.27;4.65;;;;;;;0.70;84.10;95717.00;5001265;28;20180;-63
2023/01/05 07:11:39;;;;;;;22.05;4.32;;;;;;;1.05;82.94;95712.69;4997317;28;20432;-61
2023/01/05 07:14:04;;;;;;;22.95;4.75;;;;;;;0.87;84.47;95710.50;5005873;28;20092;-62
2023/01/05 07:16:30;;;;;;;16.73;4.13;;;;;;;0.91;83.66;95719.81;5002008;28;20295;-62
2023/01/05 07:18:55;;;;;;;18.98;3.67;;;;;;;1.05;83.28;95716.16;5006550;28;20532;-61
2023/01/05 07:21:21;;;;;;;21.20;4.38;;;;;;;1.07;82.76;95731.78;5005398;28;20085;-63
2023/01/05 07:23:46;;;;;;;19.23;4.47;;;;;;;0.82;84.27;95728.38;5002576;28;20087;-62
2023/01/05 07:26:12;;;;;;;18.10;4.43;;;;;;;1.14;82.14;95722.50;5000992;28;20134;-61
2023/01/05 07:28:37;;;;;;;23.75;4.68;;;;;;;0.78;83.57;95724.31;5005472;28;20732;-60
2023/01/05 07:31:03;;;;;;;17.27;3.92;;;;;;;0.79;83.24;95750.38;4997445;28;20067;-62
2023/01/05 07:33:29;;;;;;;17.77;4.03;;;;;;;0.97;83.39;95735.09;5005533;28;20502;-61
2023/01/05 07:35:55;;;;;;;19.80;3.80;;;;;;;0.94;82.96;95740.56;5007410;28;20095;-63
2023/01/05 07:38:20;;;;;;;24.00;5.05;;;;;;;0.80;83.51;95736.34;5003676;28;20553;-63
2023/01/05 07:40:46;;;;;;;23.48;4.45;;;;;;;0.81;82.99;95756.38;5003689;28;20099;-63
2023/01/05 07:43:11;;;;;;;21.88;4.78;;;;;;;0.63;83.52;95758.56;5003709;28;20131;-63
2023/01/05 07:45:36;;;;;;;18.30;4.20;;;;;;;0.72;83.89;95755.25;5002790;28;20089;-61
2023/01/05 07:48:02;;;;;;;21.20;3.80;;;;;;;1.48;80.73;95750.56;5004871;28;20081;-62
2023/01/05 07:50:28;;;;;;;20.65;4.28;;;;;;;1.05;81.27;95752.88;5004426;28;20398;-63
2023/01/05 07:52:53;;;;;;;22.85;3.90;;;;;;;0.79;82.54;95760.88;5002328;28;20179;-61
2023/01/05 07:55:19;;;;;;;24.50;4.25;;;;;;;0.98;82.11;95767.38;5001260;28;20081;-61
2023/01/05 07:57:45;;;;;;;22.55;4.97;;;;;;;1.14;80.93;95781.97;5003665;28;20150;-62
2023/01/05 08:00:13;;;;;;;18.95;4.18;;;;;;;1.14;80.78;95785.44;5008653;28;20431;-63
2023/01/05 08:02:38;;;;;;;15.30;3.35;;;;;;;1.55;79.33;95778.03;5005779;28;20125;-62
2023/01/05 08:05:04;;;;;;;24.13;4.93;;;;;;;0.94;81.19;95789.53;5011831;28;20099;-60
2023/01/05 08:07:29;;;;;;;19.70;4.22;;;;;;;1.22;79.94;95776.97;5002491;28;20596;-63
2023/01/05 08:13:58;;;;;;;27.20;4.72;;;;;;;1.43;78.02;95808.63;4999818;28;20325;-62
2023/01/05 08:15:24;;;;;;;17.63;3.78;;;;;;;1.30;79.66;95786.91;4998919;28;20082;-63
2023/01/05 08:17:49;;;;;;;15.38;3.97;;;;;;;1.29;79.17;95804.44;5007103;28;20094;-62
2023/01/05 08:20:15;;;;;;;17.88;3.55;;;;;;;1.30;79.70;95807.91;5000998;28;20154;-63
2023/01/05 08:22:40;;;;;;;20.92;5.25;;;;;;;1.32;79.59;95805.97;5004850;28;20070;-62
2023/01/05 08:25:06;;;;;;;11.35;3.00;;;;;;;1.39;79.70;95809.00;5004157;28;20170;-63
2023/01/05 08:27:31;;;;;;;20.83;4.15;;;;;;;1.21;79.60;95818.13;5004882;28;20768;-63
2023/01/05 08:29:56;;;;;;;18.17;4.10;;;;;;;1.18;79.70;95820.13;4997404;28;20176;-61
2023/01/05 08:32:22;;;;;;;20.13;4.30;;;;;;;1.18;80.06;95814.88;5005763;28;20703;-63
2023/01/05 08:34:47;;;;;;;16.90;3.88;;;;;;;1.49;79.87;95810.81;5008253;28;20073;-63
2023/01/05 08:37:13;;;;;;;18.25;4.03;;;;;;;1.20;80.01;95813.00;5005644;28;20529;-63
2023/01/05 08:39:38;;;;;;;17.00;3.20;;;;;;;1.59;78.40;95812.75;5002722;28;20644;-62
2023/01/05 08:42:03;;;;;;;15.60;3.42;;;;;;;2.23;75.08;95818.41;5003587;28;20095;-63
2023/01/05 08:44:29;;;;;;;19.23;4.10;;;;;;;1.58;77.99;95822.44;5003063;28;20101;-63
2023/01/05 08:46:54;;;;;;;13.65;3.33;;;;;;;1.72;76.57;95813.50;5017077;28;20082;-62
2023/01/05 08:49:20;;;;;;;15.48;2.88;;;;;;;1.95;76.34;95823.19;5013735;28;20110;-64
2023/01/05 08:51:45;;;;;;;12.93;3.95;;;;;;;2.08;75.02;95823.88;5014379;28;20091;-61
2023/01/05 08:54:11;;;;;;;21.15;4.78;;;;;;;1.36;78.67;95836.28;5008859;28;20104;-63
2023/01/05 08:56:36;;;;;;;12.70;3.45;;;;;;;2.00;76.75;95842.88;5000357;28;20120;-61
2023/01/05 08:59:02;;;;;;;25.10;4.65;;;;;;;1.40;79.91;95845.59;4999579;28;20613;-64
2023/01/05 09:01:27;;;;;;;17.73;4.00;;;;;;;1.40;79.20;95844.78;5003721;28;20138;-63
2023/01/05 09:03:52;;;;;;;18.00;3.55;;;;;;;1.45;78.93;95853.97;5008419;28;20077;-63
2023/01/05 09:06:18;;;;;;;20.05;4.38;;;;;;;1.44;79.18;95852.31;5011863;28;20264;-64
2023/01/05 09:08:44;;;;;;;22.35;4.90;;;;;;;1.30;79.09;95853.31;5005716;28;20096;-63
2023/01/05 09:11:12;;;;;;;13.88;4.20;;;;;;;1.11;79.84;95838.97;4998957;28;20464;-63
2023/01/05 09:13:38;;;;;;;23.20;5.40;;;;;;;0.98;80.13;95867.00;5001223;28;20210;-62
2023/01/05 09:16:07;;;;;;;25.00;4.90;;;;;;;1.06;80.25;95858.59;4998840;28;20799;-63
2023/01/05 09:18:33;;;;;;;20.48;4.75;;;;;;;1.62;78.53;95833.53;5008557;28;20090;-63
2023/01/05 09:20:59;;;;;;;25.98;4.95;;;;;;;1.78;77.91;95848.09;5006153;28;20140;-63
2023/01/05 09:23:24;;;;;;;15.13;3.58;;;;;;;1.80;77.41;95851.47;5010924;28;20060;-63
2023/01/05 09:25:49;;;;;;;21.05;4.93;;;;;;;1.78;77.24;95853.38;5000718;28;20095;-63
2023/01/05 09:28:15;;;;;;;17.13;3.90;;;;;;;1.58;78.62;95847.84;5004930;28;20483;-63
2023/01/05 09:30:40;;;;;;;21.35;3.97;;;;;;;1.66;78.82;95855.97;5003032;28;20129;-63
2023/01/05 09:33:06;;;;;;;19.98;4.20;;;;;;;2.04;76.92;95848.72;5004816;28;20092;-64
2023/01/05 09:35:31;;;;;;;13.75;3.70;;;;;;;2.03;77.05;95860.19;5003515;28;20094;-63
2023/01/05 09:37:56;;;;;;;16.02;3.97;;;;;;;2.17;76.89;95853.88;4998171;28;20101;-63
2023/01/05 09:40:22;;;;;;;16.77;3.95;;;;;;;1.96;77.54;95859.00;5008235;28;20350;-63
2023/01/05 09:42:47;;;;;;;14.00;3.72;;;;;;;1.41;79.53;95888.44;5002366;28;20107;-63
2023/01/05 09:45:15;;;;;;;20.15;4.18;;;;;;;1.59;79.52;95865.25;5001589;28;20091;-69
2023/01/05 09:47:41;;;;;;;20.77;4.70;;;;;;;1.30;79.61;95871.69;4988681;28;20121;-68
2023/01/05 09:50:23;;;;;;;26.00;5.40;;;;;;;1.14;81.05;95881.63;4990218;28;20165;-68
2023/01/05 09:52:49;;;;;;;18.02;3.45;;;;;;;1.27;81.07;95890.28;4990468;28;20095;-64
2023/01/05 09:55:18;;;;;;;23.33;4.47;;;;;;;1.60;80.31;95880.06;5003592;28;20407;-64
2023/01/05 09:57:58;;;;;;;24.40;4.97;;;;;;;1.17;81.28;95891.91;5005833;28;20569;-63
2023/01/05 10:00:24;;;;;;;23.38;5.10;;;;;;;2.12;77.01;95888.38;4998567;28;20106;-63
2023/01/05 10:03:04;;;;;;;19.05;5.05;;;;;;;1.47;79.00;95893.22;5004365;28;20450;-62
2023/01/05 10:05:30;;;;;;;21.98;4.97;;;;;;;1.09;81.14;95911.66;5009970;28;20176;-63
2023/01/05 10:08:03;;;;;;;20.67;4.72;;;;;;;1.17;80.65;95918.97;5005402;28;20571;-63
2023/01/05 10:10:31;;;;;;;14.43;3.33;;;;;;;1.35;80.34;95900.22;5003007;28;20126;-63
2023/01/05 10:13:07;;;;;;;21.58;4.07;;;;;;;1.61;78.94;95894.84;4996962;28;20116;-64
2023/01/05 10:15:38;;;;;;;19.33;5.15;;;;;;;1.48;79.21;95889.66;5000004;28;20088;-62
2023/01/05 10:18:09;;;;;;;16.50;3.35;;;;;;;1.74;78.58;95897.41;4993156;28;20104;-62
2023/01/05 10:20:43;;;;;;;17.25;3.88;;;;;;;1.59;79.15;95894.97;5003979;28;20455;-63
2023/01/05 10:23:33;;;;;;;24.27;5.20;;;;;;;1.40;78.99;95905.13;5011846;28;20713;-62
2023/01/05 10:26:19;;;;;;;29.88;5.55;;;;;;;1.30;79.99;95902.34;5002903;28;20132;-63
2023/01/05 10:29:36;;;;;;;23.52;5.25;;;;;;;1.56;79.36;95894.34;4989288;28;20112;-67
2023/01/05 10:32:02;;;;;;;24.08;5.35;;;;;;;1.54;78.70;95902.34;5028959;28;20092;-63
2023/01/05 10:34:52;;;;;;;20.67;4.45;;;;;;;1.48;78.83;95906.25;5004816;28;20445;-63
2023/01/05 10:37:34;;;;;;;25.73;5.85;;;;;;;1.55;78.14;95911.91;4994682;28;20567;-63
2023/01/05 10:40:14;;;;;;;35.22;6.15;;;;;;;1.47;77.40;95914.22;5006308;28;20075;-62
2023/01/05 10:43:17;;;;;;;16.15;4.43;;;;;;;1.77;76.99;95914.69;5000501;28;20173;-61
2023/01/05 10:45:43;;;;;;;24.73;4.80;;;;;;;2.11;74.84;95915.59;5001444;28;20222;-63
2023/01/05 10:48:18;;;;;;;15.27;3.40;;;;;;;2.29;74.16;95912.53;5008881;28;20082;-63
2023/01/05 10:50:45;;;;;;;21.27;3.97;;;;;;;2.21;74.71;95912.28;5007310;28;20083;-63
2023/01/05 10:53:14;;;;;;;20.70;4.53;;;;;;;1.91;74.30;95921.53;5008828;28;20136;-61
2023/01/05 10:55:55;;;;;;;23.73;4.82;;;;;;;1.42;75.75;95932.06;5002570;28;20084;-60
2023/01/05 10:58:28;;;;;;;21.17;4.95;;;;;;;1.48;76.41;95913.25;5004470;28;20121;-63
2023/01/05 11:01:05;;;;;;;20.00;3.80;;;;;;;1.90;75.87;95914.63;5001404;28;20596;-63
2023/01/05 11:03:39;;;;;;;19.90;4.63;;;;;;;2.03;74.15;95923.22;5003261;28;20473;-61
2023/01/05 11:06:05;;;;;;;18.42;4.22;;;;;;;2.47;73.06;95919.91;4999343;28;20092;-62
2023/01/05 11:08:30;;;;;;;19.50;4.35;;;;;;;1.81;74.50;95926.66;4999301;28;20100;-62
2023/01/05 11:11:02;;;;;;;11.00;3.50;;;;;;;1.71;75.24;95923.88;5005016;28;20127;-63
2023/01/05 11:13:29;;;;;;;18.33;4.03;;;;;;;2.19;74.33;95922.91;5005523;28;20200;-62
2023/01/05 11:16:14;;;;;;;18.88;4.28;;;;;;;2.35;72.09;95924.34;5003025;28;20413;-62
2023/01/05 11:19:00;;;;;;;21.38;4.35;;;;;;;2.27;73.42;95924.94;5006794;28;20099;-63
2023/01/05 11:21:46;;;;;;;26.63;4.75;;;;;;;2.13;73.18;95921.59;5005901;28;20568;-62
2023/01/05 11:24:23;;;;;;;21.77;4.55;;;;;;;2.16;73.49;95917.88;5005340;28;20088;-63
2023/01/05 11:26:50;;;;;;;24.10;4.82;;;;;;;1.76;74.26;95924.34;5008953;28;20102;-63
2023/01/05 11:29:17;;;;;;;27.17;5.35;;;;;;;1.88;74.17;95923.44;5001491;28;20107;-63
2023/01/05 11:32:05;;;;;;;19.42;4.35;;;;;;;1.91;74.62;95948.66;5002114;28;20090;-62
2023/01/05 11:34:46;;;;;;;21.73;4.72;;;;;;;1.92;74.63;95931.09;5003661;28;20181;-63
2023/01/05 11:37:11;;;;;;;19.17;4.50;;;;;;;1.99;74.53;95948.06;5003728;28;20101;-61
2023/01/05 11:39:45;;;;;;;12.10;3.65;;;;;;;2.03;73.75;95930.25;5007341;28;20473;-62
2023/01/05 11:42:12;;;;;;;19.52;4.35;;;;;;;2.39;72.23;95928.41;5000119;28;20098;-63
2023/01/05 11:44:39;;;;;;;23.38;4.55;;;;;;;2.13;72.71;95926.84;4999834;28;20117;-62
2023/01/05 11:47:05;;;;;;;16.20;4.90;;;;;;;2.26;72.30;95934.63;4994087;28;20106;-63
2023/01/05 11:49:30;;;;;;;16.85;4.57;;;;;;;2.37;71.36;95957.44;5004816;28;20111;-62
2023/01/05 11:51:56;;;;;;;14.40;4.13;;;;;;;2.29;72.30;95941.44;5004326;28;20084;-62
2023/01/05 11:54:32;;;;;;;16.70;4.35;;;;;;;2.27;72.12;95933.66;5008363;28;20097;-61
2023/01/05 11:57:15;;;;;;;16.73;3.53;;;;;;;2.88;70.29;95942.13;5005789;28;20341;-63
2023/01/05 11:59:40;;;;;;;14.43;3.70;;;;;;;2.64;70.41;95940.47;5003898;28;20134;-63
2023/01/05 12:02:25;;;;;;;14.13;3.85;;;;;;;2.91;70.08;95939.25;5001875;28;20607;-62
2023/01/05 12:04:54;;;;;;;16.08;3.72;;;;;;;2.93;69.04;95943.56;5001155;28;20104;-64
2023/01/05 12:07:28;;;;;;;18.73;4.03;;;;;;;2.45;70.52;95953.38;4998939;28;20116;-63
2023/01/05 12:10:15;;;;;;;22.02;4.18;;;;;;;2.72;69.00;95933.78;5010475;28;20198;-63
2023/01/05 12:13:05;;;;;;;18.95;3.90;;;;;;;2.98;68.12;95939.59;5005567;28;21751;-63